CST,Max TemperatureF,Mean TemperatureF,Min TemperatureF,Max Dew PointF,MeanDew PointF,Min DewpointF,Max Humidity, Mean Humidity, Min Humidity, Max Sea Level PressureIn, Mean Sea Level PressureIn, Min Sea Level PressureIn, Max VisibilityMiles, Mean VisibilityMiles, Min VisibilityMiles, Max Wind SpeedMPH, Mean Wind SpeedMPH, Max Gust SpeedMPH,PrecipitationIn, CloudCover, Events, WindDirDegrees
2012-12-1,66,57,48,48,45,41,87,63,48,30.15,30.09,30.01,10,9,5,18,9,25,0.00,3,,170
2012-12-2,68,64,60,59,53,45,89,69,51,30.07,30.03,29.98,10,8,5,26,15,37,0.00,6,Rain,192
2012-12-3,70,66,62,59,56,51,88,72,57,30.07,30.02,29.96,10,9,7,26,13,34,0.00,3,,187
2012-12-4,63,51,39,56,46,39,100,81,52,30.30,30.16,29.97,10,10,5,14,8,21,0.03,3,Rain,324
2012-12-5,55,46,36,41,37,34,100,73,47,30.38,30.30,30.19,10,10,5,7,2,,0.00,0,,59
2012-12-6,53,44,35,46,39,33,93,80,63,30.18,30.05,29.95,10,10,7,8,4,,0.00,4,,121
2012-12-7,58,52,46,57,52,47,100,98,84,29.95,29.88,29.81,10,5,1,8,2,,0.00,8,Rain,169
2012-12-8,51,48,44,51,46,41,100,93,83,30.01,29.95,29.86,10,7,2,13,4,,0.00,8,Rain,11
2012-12-9,54,48,43,55,49,38,100,98,84,29.96,29.83,29.76,10,4,0,16,7,23,0.17,8,Fog-Rain-Thunderstorm,262
2012-12-10,43,36,30,40,28,24,89,81,73,30.06,29.93,29.83,10,10,10,18,11,22,0.00,8,,303
2012-12-11,39,33,27,26,25,22,89,72,55,30.24,30.14,30.06,10,10,10,14,6,18,0.00,2,,213
2012-12-12,48,37,26,30,27,25,100,70,42,30.36,30.31,30.24,10,10,5,8,3,,0.00,0,,168
2012-12-13,52,40,29,31,28,26,95,63,39,30.37,30.30,30.21,10,10,10,14,5,18,0.00,0,,169
2012-12-14,55,44,32,36,32,29,87,63,41,30.25,30.17,30.05,10,10,10,14,5,17,0.00,1,,169
2012-12-15,58,52,45,56,48,34,100,86,59,30.03,29.79,29.67,10,10,5,22,11,29,0.10,5,Rain,174
2012-12-16,55,46,38,55,45,38,100,91,80,29.77,29.72,29.69,10,8,1,14,7,,0.00,0,,236
2012-12-17,43,41,39,44,41,37,100,99,91,29.80,29.71,29.64,10,4,0,12,6,17,0.00,7,Fog-Rain-Thunderstorm,357
2012-12-18,54,44,35,42,38,34,100,79,56,29.91,29.80,29.69,10,8,4,22,8,28,0.00,2,,203
2012-12-19,54,42,32,48,37,32,100,84,71,30.03,29.91,29.61,10,7,3,15,7,22,0.00,4,Rain-Thunderstorm,89
2012-12-20,58,44,30,56,39,24,100,87,66,29.87,29.51,29.26,10,7,1,36,16,48,0.63,8,Rain-Snow-Thunderstorm,245
2012-12-21,36,32,27,24,21,18,77,66,53,30.28,30.12,29.88,10,10,10,25,19,38,0.00,1,,293
2012-12-22,44,33,22,29,22,19,89,64,38,30.30,30.18,29.98,10,10,10,12,5,,0.00,0,,188
2012-12-23,52,44,36,34,32,29,81,67,47,29.97,29.92,29.85,10,10,10,10,7,,0.00,1,,195
2012-12-24,40,34,27,36,31,22,96,86,75,30.12,29.94,29.78,10,6,2,16,7,21,0.00,8,,326
2012-12-25,35,30,26,30,27,22,88,81,70,30.23,30.11,29.91,10,8,4,21,10,30,0.00,8,,24
2012-12-26,34,32,30,32,29,26,100,86,78,30.14,29.94,29.79,10,9,1,29,19,38,0.01,8,Snow,344
2012-12-27,32,30,29,27,25,23,87,79,68,30.22,30.15,30.10,10,10,10,9,5,,0.00,8,,80
2012-12-28,36,33,30,34,30,26,100,90,81,30.09,29.98,29.87,10,6,1,9,3,,0.10,8,Snow,123
2012-12-29,32,23,14,32,25,14,100,89,73,30.35,30.11,29.86,10,6,1,24,6,26,0.00,6,Snow,295
2012-12-30,34,24,14,27,23,13,100,80,64,30.46,30.37,30.25,10,8,0,13,5,18,0.00,0,Fog,189
2012-12-31,37,34,32,36,31,27,100,88,73,30.25,30.16,30.08,10,5,1,16,9,20,0.00,7,Snow,210